sensor_id;sensor_type;location;lat;lon;timestamp;P1;durP1;ratioP1;P2;durP2;ratioP2
18899;SDS011;9582;52.018;6.306;2023-02-26T00:01:36;5.50;;;1.90;;
18899;SDS011;9582;52.018;6.306;2023-02-26T00:04:03;5.37;;;2.00;;
18899;SDS011;9582;52.018;6.306;2023-02-26T00:06:32;7.03;;;2.30;;
18899;SDS011;9582;52.018;6.306;2023-02-26T00:09:00;5.67;;;2.20;;
18899;SDS011;9582;52.018;6.306;2023-02-26T00:11:27;5.17;;;2.10;;
18899;SDS011;9582;52.018;6.306;2023-02-26T00:13:54;4.73;;;1.97;;
18899;SDS011;9582;52.018;6.306;2023-02-26T00:16:25;7.33;;;2.70;;
18899;SDS011;9582;52.018;6.306;2023-02-26T00:18:55;5.30;;;2.20;;
18899;SDS011;9582;52.018;6.306;2023-02-26T00:21:23;7.57;;;2.37;;
18899;SDS011;9582;52.018;6.306;2023-02-26T00:23:51;3.77;;;2.23;;
18899;SDS011;9582;52.018;6.306;2023-02-26T00:26:18;4.43;;;1.93;;
18899;SDS011;9582;52.018;6.306;2023-02-26T00:28:45;6.50;;;2.07;;
18899;SDS011;9582;52.018;6.306;2023-02-26T00:31:14;6.93;;;2.17;;
18899;SDS011;9582;52.018;6.306;2023-02-26T00:33:41;5.60;;;1.70;;
18899;SDS011;9582;52.018;6.306;2023-02-26T00:36:14;3.27;;;1.43;;
18899;SDS011;9582;52.018;6.306;2023-02-26T00:38:55;4.57;;;1.67;;
18899;SDS011;9582;52.018;6.306;2023-02-26T00:41:32;6.10;;;1.90;;
18899;SDS011;9582;52.018;6.306;2023-02-26T00:44:00;6.00;;;1.60;;
18899;SDS011;9582;52.018;6.306;2023-02-26T00:46:28;5.27;;;1.37;;
18899;SDS011;9582;52.018;6.306;2023-02-26T00:49:06;3.03;;;1.50;;
18899;SDS011;9582;52.018;6.306;2023-02-26T00:51:45;6.47;;;1.40;;
18899;SDS011;9582;52.018;6.306;2023-02-26T00:54:15;6.50;;;1.80;;
18899;SDS011;9582;52.018;6.306;2023-02-26T00:56:46;9.17;;;1.53;;
18899;SDS011;9582;52.018;6.306;2023-02-26T00:59:13;3.73;;;1.27;;
18899;SDS011;9582;52.018;6.306;2023-02-26T01:01:40;7.33;;;1.70;;
18899;SDS011;9582;52.018;6.306;2023-02-26T01:04:07;3.83;;;1.30;;
18899;SDS011;9582;52.018;6.306;2023-02-26T01:06:37;3.27;;;1.50;;
18899;SDS011;9582;52.018;6.306;2023-02-26T01:09:09;3.13;;;1.63;;
18899;SDS011;9582;52.018;6.306;2023-02-26T01:11:41;4.27;;;1.43;;
18899;SDS011;9582;52.018;6.306;2023-02-26T01:14:08;4.60;;;1.70;;
18899;SDS011;9582;52.018;6.306;2023-02-26T01:16:36;6.33;;;2.00;;
18899;SDS011;9582;52.018;6.306;2023-02-26T01:19:13;7.50;;;1.70;;
18899;SDS011;9582;52.018;6.306;2023-02-26T01:21:45;4.80;;;1.40;;
18899;SDS011;9582;52.018;6.306;2023-02-26T01:24:21;3.60;;;1.37;;
18899;SDS011;9582;52.018;6.306;2023-02-26T01:26:49;6.37;;;1.80;;
18899;SDS011;9582;52.018;6.306;2023-02-26T01:29:17;5.37;;;1.73;;
18899;SDS011;9582;52.018;6.306;2023-02-26T01:31:46;6.13;;;1.53;;
18899;SDS011;9582;52.018;6.306;2023-02-26T01:34:17;3.90;;;1.33;;
18899;SDS011;9582;52.018;6.306;2023-02-26T01:36:46;3.87;;;1.50;;
18899;SDS011;9582;52.018;6.306;2023-02-26T01:39:22;1.47;;;1.20;;
18899;SDS011;9582;52.018;6.306;2023-02-26T01:41:56;4.53;;;1.60;;
18899;SDS011;9582;52.018;6.306;2023-02-26T01:44:34;3.57;;;1.60;;
18899;SDS011;9582;52.018;6.306;2023-02-26T01:47:10;4.53;;;1.57;;
18899;SDS011;9582;52.018;6.306;2023-02-26T01:49:43;2.10;;;1.20;;
18899;SDS011;9582;52.018;6.306;2023-02-26T01:55:30;6.43;;;1.67;;
18899;SDS011;9582;52.018;6.306;2023-02-26T01:57:57;3.20;;;1.53;;
18899;SDS011;9582;52.018;6.306;2023-02-26T02:00:27;2.80;;;1.60;;
18899;SDS011;9582;52.018;6.306;2023-02-26T02:02:55;3.87;;;1.40;;
18899;SDS011;9582;52.018;6.306;2023-02-26T02:05:23;5.37;;;1.70;;
18899;SDS011;9582;52.018;6.306;2023-02-26T02:07:56;5.30;;;1.70;;
18899;SDS011;9582;52.018;6.306;2023-02-26T02:10:24;3.37;;;1.80;;
18899;SDS011;9582;52.018;6.306;2023-02-26T02:12:54;5.23;;;1.87;;
18899;SDS011;9582;52.018;6.306;2023-02-26T02:15:32;4.13;;;1.60;;
18899;SDS011;9582;52.018;6.306;2023-02-26T02:18:08;4.43;;;1.43;;
18899;SDS011;9582;52.018;6.306;2023-02-26T02:23:50;6.63;;;1.97;;
18899;SDS011;9582;52.018;6.306;2023-02-26T02:26:37;4.57;;;1.50;;
18899;SDS011;9582;52.018;6.306;2023-02-26T02:32:12;5.03;;;1.83;;
18899;SDS011;9582;52.018;6.306;2023-02-26T02:34:45;4.27;;;1.63;;
18899;SDS011;9582;52.018;6.306;2023-02-26T02:37:15;4.93;;;1.23;;
18899;SDS011;9582;52.018;6.306;2023-02-26T02:39:46;5.43;;;1.40;;
18899;SDS011;9582;52.018;6.306;2023-02-26T02:42:19;5.90;;;1.73;;
18899;SDS011;9582;52.018;6.306;2023-02-26T02:44:51;4.70;;;1.33;;
18899;SDS011;9582;52.018;6.306;2023-02-26T02:47:23;5.10;;;1.80;;
18899;SDS011;9582;52.018;6.306;2023-02-26T02:49:55;4.10;;;1.60;;
18899;SDS011;9582;52.018;6.306;2023-02-26T02:52:28;3.70;;;1.40;;
18899;SDS011;9582;52.018;6.306;2023-02-26T02:55:04;1.87;;;1.40;;
18899;SDS011;9582;52.018;6.306;2023-02-26T02:57:34;5.07;;;1.47;;
18899;SDS011;9582;52.018;6.306;2023-02-26T03:00:07;4.23;;;1.40;;
18899;SDS011;9582;52.018;6.306;2023-02-26T03:02:39;4.10;;;1.47;;
18899;SDS011;9582;52.018;6.306;2023-02-26T03:05:12;5.67;;;2.13;;
18899;SDS011;9582;52.018;6.306;2023-02-26T03:07:41;4.83;;;1.90;;
18899;SDS011;9582;52.018;6.306;2023-02-26T03:10:13;7.80;;;2.13;;
18899;SDS011;9582;52.018;6.306;2023-02-26T03:12:40;4.63;;;1.73;;
18899;SDS011;9582;52.018;6.306;2023-02-26T03:15:07;6.00;;;1.47;;
18899;SDS011;9582;52.018;6.306;2023-02-26T03:17:37;7.23;;;1.73;;
18899;SDS011;9582;52.018;6.306;2023-02-26T03:20:14;4.53;;;1.50;;
18899;SDS011;9582;52.018;6.306;2023-02-26T03:22:49;7.27;;;1.50;;
18899;SDS011;9582;52.018;6.306;2023-02-26T03:25:23;4.27;;;1.60;;
18899;SDS011;9582;52.018;6.306;2023-02-26T03:27:57;8.30;;;1.53;;
18899;SDS011;9582;52.018;6.306;2023-02-26T03:30:33;3.13;;;1.30;;
18899;SDS011;9582;52.018;6.306;2023-02-26T03:33:08;7.63;;;1.80;;
18899;SDS011;9582;52.018;6.306;2023-02-26T03:35:43;4.70;;;1.40;;
18899;SDS011;9582;52.018;6.306;2023-02-26T03:38:15;4.27;;;1.60;;
18899;SDS011;9582;52.018;6.306;2023-02-26T03:40:48;14.70;;;2.40;;
18899;SDS011;9582;52.018;6.306;2023-02-26T03:43:22;3.50;;;1.30;;
18899;SDS011;9582;52.018;6.306;2023-02-26T03:45:55;2.97;;;1.57;;
18899;SDS011;9582;52.018;6.306;2023-02-26T03:48:28;2.03;;;1.27;;
18899;SDS011;9582;52.018;6.306;2023-02-26T03:50:59;3.43;;;1.50;;
18899;SDS011;9582;52.018;6.306;2023-02-26T03:53:46;4.60;;;1.20;;
18899;SDS011;9582;52.018;6.306;2023-02-26T03:56:21;3.17;;;1.10;;
18899;SDS011;9582;52.018;6.306;2023-02-26T03:59:09;5.13;;;1.90;;
18899;SDS011;9582;52.018;6.306;2023-02-26T04:01:43;2.70;;;1.40;;
18899;SDS011;9582;52.018;6.306;2023-02-26T04:04:18;4.40;;;1.17;;
18899;SDS011;9582;52.018;6.306;2023-02-26T04:06:48;5.60;;;2.60;;
18899;SDS011;9582;52.018;6.306;2023-02-26T04:09:17;4.30;;;1.37;;
18899;SDS011;9582;52.018;6.306;2023-02-26T04:11:44;2.50;;;1.30;;
18899;SDS011;9582;52.018;6.306;2023-02-26T04:14:13;4.17;;;1.50;;
18899;SDS011;9582;52.018;6.306;2023-02-26T04:16:41;6.50;;;1.50;;
18899;SDS011;9582;52.018;6.306;2023-02-26T04:19:10;5.10;;;1.50;;
18899;SDS011;9582;52.018;6.306;2023-02-26T04:21:38;3.80;;;1.40;;
18899;SDS011;9582;52.018;6.306;2023-02-26T04:24:04;6.97;;;1.30;;
18899;SDS011;9582;52.018;6.306;2023-02-26T04:26:32;3.07;;;1.10;;
18899;SDS011;9582;52.018;6.306;2023-02-26T04:28:59;2.87;;;1.17;;
18899;SDS011;9582;52.018;6.306;2023-02-26T04:31:26;4.50;;;1.30;;
18899;SDS011;9582;52.018;6.306;2023-02-26T04:33:53;4.47;;;1.33;;
18899;SDS011;9582;52.018;6.306;2023-02-26T04:36:19;4.23;;;1.30;;
18899;SDS011;9582;52.018;6.306;2023-02-26T04:38:48;3.50;;;1.43;;
18899;SDS011;9582;52.018;6.306;2023-02-26T04:41:14;5.17;;;1.43;;
18899;SDS011;9582;52.018;6.306;2023-02-26T04:43:42;4.83;;;1.37;;
18899;SDS011;9582;52.018;6.306;2023-02-26T04:46:23;4.57;;;1.30;;
18899;SDS011;9582;52.018;6.306;2023-02-26T04:48:50;3.07;;;1.10;;
18899;SDS011;9582;52.018;6.306;2023-02-26T04:51:16;3.40;;;1.43;;
18899;SDS011;9582;52.018;6.306;2023-02-26T04:53:44;3.23;;;1.10;;
18899;SDS011;9582;52.018;6.306;2023-02-26T04:56:12;4.47;;;1.50;;
18899;SDS011;9582;52.018;6.306;2023-02-26T04:58:38;3.63;;;1.30;;
18899;SDS011;9582;52.018;6.306;2023-02-26T05:01:09;2.30;;;0.80;;
18899;SDS011;9582;52.018;6.306;2023-02-26T05:03:37;0.43;;;0.30;;
18899;SDS011;9582;52.018;6.306;2023-02-26T05:06:04;2.40;;;1.00;;
18899;SDS011;9582;52.018;6.306;2023-02-26T05:08:31;2.53;;;0.90;;
18899;SDS011;9582;52.018;6.306;2023-02-26T05:10:57;4.00;;;1.13;;
18899;SDS011;9582;52.018;6.306;2023-02-26T05:13:25;1.03;;;0.43;;
18899;SDS011;9582;52.018;6.306;2023-02-26T05:15:52;5.87;;;1.00;;
18899;SDS011;9582;52.018;6.306;2023-02-26T05:18:18;3.30;;;0.87;;
18899;SDS011;9582;52.018;6.306;2023-02-26T05:20:49;4.83;;;0.97;;
18899;SDS011;9582;52.018;6.306;2023-02-26T05:23:17;1.47;;;1.20;;
18899;SDS011;9582;52.018;6.306;2023-02-26T05:25:44;4.93;;;1.07;;
18899;SDS011;9582;52.018;6.306;2023-02-26T05:28:10;3.77;;;1.30;;
18899;SDS011;9582;52.018;6.306;2023-02-26T05:30:39;3.03;;;1.00;;
18899;SDS011;9582;52.018;6.306;2023-02-26T05:33:06;3.80;;;1.20;;
18899;SDS011;9582;52.018;6.306;2023-02-26T05:35:32;2.93;;;1.00;;
18899;SDS011;9582;52.018;6.306;2023-02-26T05:37:59;3.77;;;0.90;;
18899;SDS011;9582;52.018;6.306;2023-02-26T05:40:25;4.83;;;1.17;;
18899;SDS011;9582;52.018;6.306;2023-02-26T05:42:52;2.20;;;1.00;;
18899;SDS011;9582;52.018;6.306;2023-02-26T05:45:18;6.73;;;1.20;;
18899;SDS011;9582;52.018;6.306;2023-02-26T05:47:46;4.47;;;1.07;;
18899;SDS011;9582;52.018;6.306;2023-02-26T05:50:13;3.47;;;1.20;;
18899;SDS011;9582;52.018;6.306;2023-02-26T05:52:39;3.27;;;1.10;;
18899;SDS011;9582;52.018;6.306;2023-02-26T05:55:06;3.87;;;1.40;;
18899;SDS011;9582;52.018;6.306;2023-02-26T05:57:34;7.23;;;1.30;;
18899;SDS011;9582;52.018;6.306;2023-02-26T06:00:00;5.00;;;1.30;;
18899;SDS011;9582;52.018;6.306;2023-02-26T06:02:37;2.63;;;1.17;;
18899;SDS011;9582;52.018;6.306;2023-02-26T06:05:06;2.83;;;1.10;;
18899;SDS011;9582;52.018;6.306;2023-02-26T06:07:34;3.60;;;1.10;;
18899;SDS011;9582;52.018;6.306;2023-02-26T06:10:00;3.23;;;1.13;;
18899;SDS011;9582;52.018;6.306;2023-02-26T06:12:27;5.17;;;0.93;;
18899;SDS011;9582;52.018;6.306;2023-02-26T06:14:53;3.93;;;1.00;;
18899;SDS011;9582;52.018;6.306;2023-02-26T06:17:19;7.70;;;1.60;;
18899;SDS011;9582;52.018;6.306;2023-02-26T06:19:46;5.67;;;1.03;;
18899;SDS011;9582;52.018;6.306;2023-02-26T06:22:14;3.03;;;0.90;;
18899;SDS011;9582;52.018;6.306;2023-02-26T06:24:40;2.23;;;0.53;;
18899;SDS011;9582;52.018;6.306;2023-02-26T06:27:07;3.10;;;0.60;;
18899;SDS011;9582;52.018;6.306;2023-02-26T06:29:33;4.57;;;1.47;;
18899;SDS011;9582;52.018;6.306;2023-02-26T06:32:01;5.90;;;1.00;;
18899;SDS011;9582;52.018;6.306;2023-02-26T06:34:28;4.60;;;1.20;;
18899;SDS011;9582;52.018;6.306;2023-02-26T06:36:54;3.53;;;1.33;;
18899;SDS011;9582;52.018;6.306;2023-02-26T06:39:22;4.10;;;1.20;;
18899;SDS011;9582;52.018;6.306;2023-02-26T06:41:49;6.27;;;1.23;;
18899;SDS011;9582;52.018;6.306;2023-02-26T06:44:15;5.37;;;1.30;;
18899;SDS011;9582;52.018;6.306;2023-02-26T06:46:41;3.43;;;1.10;;
18899;SDS011;9582;52.018;6.306;2023-02-26T06:49:08;5.43;;;1.20;;
18899;SDS011;9582;52.018;6.306;2023-02-26T06:51:35;4.87;;;1.57;;
18899;SDS011;9582;52.018;6.306;2023-02-26T06:54:01;3.20;;;1.10;;
18899;SDS011;9582;52.018;6.306;2023-02-26T06:56:29;3.67;;;1.00;;
18899;SDS011;9582;52.018;6.306;2023-02-26T06:58:55;4.13;;;1.00;;
18899;SDS011;9582;52.018;6.306;2023-02-26T07:01:22;2.63;;;1.20;;
18899;SDS011;9582;52.018;6.306;2023-02-26T07:03:49;2.93;;;1.30;;
18899;SDS011;9582;52.018;6.306;2023-02-26T07:06:15;3.37;;;0.90;;
18899;SDS011;9582;52.018;6.306;2023-02-26T07:08:42;3.00;;;0.97;;
18899;SDS011;9582;52.018;6.306;2023-02-26T07:11:09;5.80;;;1.00;;
18899;SDS011;9582;52.018;6.306;2023-02-26T07:13:37;1.33;;;0.90;;
18899;SDS011;9582;52.018;6.306;2023-02-26T07:16:04;4.83;;;1.00;;
18899;SDS011;9582;52.018;6.306;2023-02-26T07:18:31;4.37;;;1.07;;
18899;SDS011;9582;52.018;6.306;2023-02-26T07:20:58;3.67;;;1.07;;
18899;SDS011;9582;52.018;6.306;2023-02-26T07:23:24;4.27;;;0.83;;
18899;SDS011;9582;52.018;6.306;2023-02-26T07:25:51;1.47;;;0.80;;
18899;SDS011;9582;52.018;6.306;2023-02-26T07:28:18;1.80;;;1.10;;
18899;SDS011;9582;52.018;6.306;2023-02-26T07:30:46;5.53;;;0.77;;
18899;SDS011;9582;52.018;6.306;2023-02-26T07:33:12;2.53;;;1.10;;
18899;SDS011;9582;52.018;6.306;2023-02-26T07:35:39;2.00;;;1.23;;
18899;SDS011;9582;52.018;6.306;2023-02-26T07:38:06;2.87;;;1.10;;
18899;SDS011;9582;52.018;6.306;2023-02-26T07:40:32;0.80;;;0.80;;
18899;SDS011;9582;52.018;6.306;2023-02-26T07:42:59;2.97;;;0.90;;
18899;SDS011;9582;52.018;6.306;2023-02-26T07:45:25;3.57;;;1.10;;
18899;SDS011;9582;52.018;6.306;2023-02-26T07:47:53;3.47;;;1.20;;
18899;SDS011;9582;52.018;6.306;2023-02-26T07:50:20;3.37;;;1.00;;
18899;SDS011;9582;52.018;6.306;2023-02-26T07:52:49;2.13;;;0.80;;
18899;SDS011;9582;52.018;6.306;2023-02-26T07:55:16;4.47;;;1.00;;
18899;SDS011;9582;52.018;6.306;2023-02-26T07:57:43;1.90;;;0.73;;
18899;SDS011;9582;52.018;6.306;2023-02-26T08:00:10;2.17;;;1.03;;
18899;SDS011;9582;52.018;6.306;2023-02-26T08:02:40;1.40;;;1.03;;
18899;SDS011;9582;52.018;6.306;2023-02-26T08:05:08;2.60;;;0.80;;
18899;SDS011;9582;52.018;6.306;2023-02-26T08:07:35;4.10;;;0.87;;
18899;SDS011;9582;52.018;6.306;2023-02-26T08:10:02;3.03;;;0.90;;
18899;SDS011;9582;52.018;6.306;2023-02-26T08:12:30;2.90;;;0.80;;
18899;SDS011;9582;52.018;6.306;2023-02-26T08:14:57;3.97;;;0.80;;
18899;SDS011;9582;52.018;6.306;2023-02-26T08:17:23;4.40;;;0.87;;
18899;SDS011;9582;52.018;6.306;2023-02-26T08:19:50;1.80;;;0.67;;
18899;SDS011;9582;52.018;6.306;2023-02-26T08:22:17;3.10;;;0.60;;
18899;SDS011;9582;52.018;6.306;2023-02-26T08:24:44;3.80;;;0.67;;
18899;SDS011;9582;52.018;6.306;2023-02-26T08:27:11;2.70;;;0.60;;
18899;SDS011;9582;52.018;6.306;2023-02-26T08:29:37;1.83;;;0.80;;
18899;SDS011;9582;52.018;6.306;2023-02-26T08:32:04;1.33;;;0.60;;
18899;SDS011;9582;52.018;6.306;2023-02-26T08:34:30;2.07;;;0.80;;
18899;SDS011;9582;52.018;6.306;2023-02-26T08:36:57;1.70;;;0.80;;
18899;SDS011;9582;52.018;6.306;2023-02-26T08:39:25;2.77;;;1.07;;
18899;SDS011;9582;52.018;6.306;2023-02-26T08:41:51;1.63;;;0.73;;
18899;SDS011;9582;52.018;6.306;2023-02-26T08:44:18;2.13;;;0.93;;
18899;SDS011;9582;52.018;6.306;2023-02-26T08:46:44;2.70;;;0.80;;
18899;SDS011;9582;52.018;6.306;2023-02-26T08:49:11;1.53;;;0.60;;
18899;SDS011;9582;52.018;6.306;2023-02-26T08:51:37;2.00;;;0.80;;
18899;SDS011;9582;52.018;6.306;2023-02-26T08:54:04;5.00;;;1.43;;
18899;SDS011;9582;52.018;6.306;2023-02-26T08:56:32;3.27;;;1.20;;
18899;SDS011;9582;52.018;6.306;2023-02-26T08:58:58;6.70;;;1.03;;
18899;SDS011;9582;52.018;6.306;2023-02-26T09:01:25;2.50;;;0.90;;
18899;SDS011;9582;52.018;6.306;2023-02-26T09:03:51;4.00;;;1.33;;
18899;SDS011;9582;52.018;6.306;2023-02-26T09:06:18;3.43;;;0.80;;
18899;SDS011;9582;52.018;6.306;2023-02-26T09:08:44;1.47;;;0.80;;
18899;SDS011;9582;52.018;6.306;2023-02-26T09:11:11;3.30;;;0.57;;
18899;SDS011;9582;52.018;6.306;2023-02-26T09:13:39;2.63;;;0.70;;
18899;SDS011;9582;52.018;6.306;2023-02-26T09:16:06;1.47;;;0.50;;
18899;SDS011;9582;52.018;6.306;2023-02-26T09:18:33;1.87;;;0.67;;
18899;SDS011;9582;52.018;6.306;2023-02-26T09:21:00;1.03;;;0.80;;
18899;SDS011;9582;52.018;6.306;2023-02-26T09:23:27;3.27;;;0.70;;
18899;SDS011;9582;52.018;6.306;2023-02-26T09:25:54;2.03;;;0.63;;
18899;SDS011;9582;52.018;6.306;2023-02-26T09:28:22;1.07;;;0.67;;
18899;SDS011;9582;52.018;6.306;2023-02-26T09:30:51;2.07;;;1.00;;
18899;SDS011;9582;52.018;6.306;2023-02-26T09:33:18;1.67;;;0.70;;
18899;SDS011;9582;52.018;6.306;2023-02-26T09:35:46;2.90;;;0.70;;
18899;SDS011;9582;52.018;6.306;2023-02-26T09:38:13;0.93;;;0.67;;
18899;SDS011;9582;52.018;6.306;2023-02-26T09:40:40;0.97;;;0.70;;
18899;SDS011;9582;52.018;6.306;2023-02-26T09:43:19;2.73;;;0.70;;
18899;SDS011;9582;52.018;6.306;2023-02-26T09:46:00;2.57;;;0.47;;
18899;SDS011;9582;52.018;6.306;2023-02-26T09:48:31;1.40;;;0.40;;
18899;SDS011;9582;52.018;6.306;2023-02-26T09:51:00;2.00;;;0.63;;
18899;SDS011;9582;52.018;6.306;2023-02-26T09:53:28;1.37;;;0.87;;
18899;SDS011;9582;52.018;6.306;2023-02-26T09:55:59;1.93;;;0.80;;
18899;SDS011;9582;52.018;6.306;2023-02-26T09:58:30;2.70;;;0.80;;
18899;SDS011;9582;52.018;6.306;2023-02-26T10:01:02;2.70;;;0.70;;
18899;SDS011;9582;52.018;6.306;2023-02-26T10:03:36;2.23;;;0.90;;
18899;SDS011;9582;52.018;6.306;2023-02-26T10:06:16;1.27;;;0.40;;
18899;SDS011;9582;52.018;6.306;2023-02-26T10:08:51;2.50;;;0.60;;
18899;SDS011;9582;52.018;6.306;2023-02-26T10:11:33;2.00;;;0.90;;
18899;SDS011;9582;52.018;6.306;2023-02-26T10:14:10;1.87;;;0.70;;
18899;SDS011;9582;52.018;6.306;2023-02-26T10:16:43;0.67;;;0.30;;
18899;SDS011;9582;52.018;6.306;2023-02-26T10:19:15;1.77;;;1.03;;
18899;SDS011;9582;52.018;6.306;2023-02-26T10:21:45;3.73;;;0.80;;
18899;SDS011;9582;52.018;6.306;2023-02-26T10:24:17;1.33;;;0.40;;
18899;SDS011;9582;52.018;6.306;2023-02-26T10:26:49;1.70;;;0.77;;
18899;SDS011;9582;52.018;6.306;2023-02-26T10:29:20;2.10;;;0.70;;
18899;SDS011;9582;52.018;6.306;2023-02-26T10:32:01;4.57;;;0.60;;
18899;SDS011;9582;52.018;6.306;2023-02-26T10:34:34;1.70;;;0.60;;
18899;SDS011;9582;52.018;6.306;2023-02-26T10:37:07;1.10;;;0.60;;
18899;SDS011;9582;52.018;6.306;2023-02-26T10:39:42;0.50;;;0.30;;
18899;SDS011;9582;52.018;6.306;2023-02-26T10:42:15;1.63;;;0.60;;
18899;SDS011;9582;52.018;6.306;2023-02-26T10:44:48;0.93;;;0.40;;
18899;SDS011;9582;52.018;6.306;2023-02-26T10:47:22;2.43;;;0.80;;
18899;SDS011;9582;52.018;6.306;2023-02-26T10:50:00;1.70;;;0.40;;
18899;SDS011;9582;52.018;6.306;2023-02-26T10:52:29;1.93;;;0.80;;
18899;SDS011;9582;52.018;6.306;2023-02-26T10:55:07;1.37;;;0.40;;
18899;SDS011;9582;52.018;6.306;2023-02-26T10:57:46;2.07;;;0.77;;
18899;SDS011;9582;52.018;6.306;2023-02-26T11:00:19;0.33;;;0.33;;
18899;SDS011;9582;52.018;6.306;2023-02-26T11:02:48;2.03;;;0.60;;
18899;SDS011;9582;52.018;6.306;2023-02-26T11:05:17;0.80;;;0.33;;
18899;SDS011;9582;52.018;6.306;2023-02-26T11:07:47;1.20;;;0.40;;
18899;SDS011;9582;52.018;6.306;2023-02-26T11:10:17;1.50;;;0.40;;
18899;SDS011;9582;52.018;6.306;2023-02-26T11:12:47;0.63;;;0.23;;
18899;SDS011;9582;52.018;6.306;2023-02-26T11:15:14;1.37;;;0.57;;
18899;SDS011;9582;52.018;6.306;2023-02-26T11:17:43;1.30;;;0.90;;
18899;SDS011;9582;52.018;6.306;2023-02-26T11:20:14;1.83;;;0.93;;
18899;SDS011;9582;52.018;6.306;2023-02-26T11:22:45;0.80;;;0.53;;
18899;SDS011;9582;52.018;6.306;2023-02-26T11:25:13;0.70;;;0.40;;
18899;SDS011;9582;52.018;6.306;2023-02-26T11:27:44;1.87;;;0.73;;
18899;SDS011;9582;52.018;6.306;2023-02-26T11:32:43;3.37;;;0.80;;
18899;SDS011;9582;52.018;6.306;2023-02-26T11:35:12;0.53;;;0.53;;
18899;SDS011;9582;52.018;6.306;2023-02-26T11:37:44;2.57;;;0.77;;
18899;SDS011;9582;52.018;6.306;2023-02-26T11:40:14;1.07;;;0.40;;
18899;SDS011;9582;52.018;6.306;2023-02-26T11:42:44;1.57;;;0.83;;
18899;SDS011;9582;52.018;6.306;2023-02-26T11:45:15;0.60;;;0.50;;
18899;SDS011;9582;52.018;6.306;2023-02-26T11:47:44;0.67;;;0.47;;
18899;SDS011;9582;52.018;6.306;2023-02-26T11:50:13;0.83;;;0.40;;
18899;SDS011;9582;52.018;6.306;2023-02-26T11:52:47;1.57;;;0.50;;
18899;SDS011;9582;52.018;6.306;2023-02-26T11:55:21;0.60;;;0.40;;
18899;SDS011;9582;52.018;6.306;2023-02-26T11:57:54;2.03;;;0.60;;
18899;SDS011;9582;52.018;6.306;2023-02-26T12:00:28;2.63;;;0.53;;
18899;SDS011;9582;52.018;6.306;2023-02-26T12:02:59;1.60;;;0.70;;
18899;SDS011;9582;52.018;6.306;2023-02-26T12:05:29;1.50;;;1.00;;
18899;SDS011;9582;52.018;6.306;2023-02-26T12:07:56;2.37;;;0.60;;
18899;SDS011;9582;52.018;6.306;2023-02-26T12:10:25;1.47;;;0.60;;
18899;SDS011;9582;52.018;6.306;2023-02-26T12:13:06;1.43;;;0.60;;
18899;SDS011;9582;52.018;6.306;2023-02-26T12:15:42;2.40;;;0.90;;
18899;SDS011;9582;52.018;6.306;2023-02-26T12:18:28;2.63;;;0.90;;
18899;SDS011;9582;52.018;6.306;2023-02-26T12:21:06;1.77;;;0.80;;
18899;SDS011;9582;52.018;6.306;2023-02-26T12:23:53;2.23;;;0.83;;
18899;SDS011;9582;52.018;6.306;2023-02-26T12:26:41;3.57;;;0.70;;
18899;SDS011;9582;52.018;6.306;2023-02-26T12:29:28;1.27;;;0.50;;
18899;SDS011;9582;52.018;6.306;2023-02-26T12:35:14;1.17;;;0.77;;
18899;SDS011;9582;52.018;6.306;2023-02-26T12:37:58;2.03;;;0.70;;
18899;SDS011;9582;52.018;6.306;2023-02-26T12:40:43;2.57;;;0.70;;
18899;SDS011;9582;52.018;6.306;2023-02-26T12:43:29;0.70;;;0.70;;
18899;SDS011;9582;52.018;6.306;2023-02-26T12:46:04;1.63;;;0.80;;
18899;SDS011;9582;52.018;6.306;2023-02-26T12:51:45;2.53;;;0.70;;
18899;SDS011;9582;52.018;6.306;2023-02-26T12:54:31;2.50;;;1.00;;
18899;SDS011;9582;52.018;6.306;2023-02-26T12:57:17;1.83;;;0.77;;
18899;SDS011;9582;52.018;6.306;2023-02-26T12:59:59;0.83;;;0.50;;
18899;SDS011;9582;52.018;6.306;2023-02-26T13:06:10;0.80;;;0.57;;
18899;SDS011;9582;52.018;6.306;2023-02-26T13:08:48;0.83;;;0.47;;
18899;SDS011;9582;52.018;6.306;2023-02-26T13:11:29;2.30;;;0.70;;
18899;SDS011;9582;52.018;6.306;2023-02-26T13:14:17;0.90;;;0.50;;
18899;SDS011;9582;52.018;6.306;2023-02-26T13:16:51;2.20;;;0.70;;
18899;SDS011;9582;52.018;6.306;2023-02-26T13:19:25;0.93;;;0.50;;
18899;SDS011;9582;52.018;6.306;2023-02-26T13:22:02;0.97;;;0.60;;
18899;SDS011;9582;52.018;6.306;2023-02-26T13:24:36;2.93;;;0.63;;
18899;SDS011;9582;52.018;6.306;2023-02-26T13:27:08;1.67;;;0.70;;
18899;SDS011;9582;52.018;6.306;2023-02-26T13:29:40;1.73;;;0.63;;
18899;SDS011;9582;52.018;6.306;2023-02-26T13:32:13;1.13;;;0.50;;
18899;SDS011;9582;52.018;6.306;2023-02-26T13:34:45;2.40;;;0.70;;
18899;SDS011;9582;52.018;6.306;2023-02-26T13:37:19;1.80;;;0.73;;
18899;SDS011;9582;52.018;6.306;2023-02-26T13:39:51;0.43;;;0.43;;
18899;SDS011;9582;52.018;6.306;2023-02-26T13:42:29;1.33;;;0.70;;
18899;SDS011;9582;52.018;6.306;2023-02-26T13:45:14;2.53;;;0.80;;
18899;SDS011;9582;52.018;6.306;2023-02-26T13:47:54;1.03;;;0.63;;
18899;SDS011;9582;52.018;6.306;2023-02-26T13:50:30;1.97;;;0.70;;
18899;SDS011;9582;52.018;6.306;2023-02-26T13:56:15;1.53;;;0.80;;
18899;SDS011;9582;52.018;6.306;2023-02-26T13:58:47;3.33;;;0.80;;
18899;SDS011;9582;52.018;6.306;2023-02-26T14:01:15;0.87;;;0.40;;
18899;SDS011;9582;52.018;6.306;2023-02-26T14:03:45;1.93;;;0.80;;
18899;SDS011;9582;52.018;6.306;2023-02-26T14:06:22;0.60;;;0.57;;
18899;SDS011;9582;52.018;6.306;2023-02-26T14:09:03;1.50;;;0.60;;
18899;SDS011;9582;52.018;6.306;2023-02-26T14:14:22;0.47;;;0.47;;
18899;SDS011;9582;52.018;6.306;2023-02-26T14:16:54;0.83;;;0.40;;
18899;SDS011;9582;52.018;6.306;2023-02-26T14:22:50;1.73;;;0.70;;
18899;SDS011;9582;52.018;6.306;2023-02-26T14:25:50;0.37;;;0.30;;
18899;SDS011;9582;52.018;6.306;2023-02-26T14:31:14;2.20;;;0.40;;
18899;SDS011;9582;52.018;6.306;2023-02-26T14:33:47;0.90;;;0.33;;
18899;SDS011;9582;52.018;6.306;2023-02-26T14:36:27;1.43;;;0.70;;
18899;SDS011;9582;52.018;6.306;2023-02-26T14:39:01;2.20;;;0.70;;
18899;SDS011;9582;52.018;6.306;2023-02-26T14:41:33;0.57;;;0.50;;
18899;SDS011;9582;52.018;6.306;2023-02-26T14:44:06;1.97;;;0.70;;
18899;SDS011;9582;52.018;6.306;2023-02-26T14:46:40;3.40;;;0.70;;
18899;SDS011;9582;52.018;6.306;2023-02-26T14:49:11;3.70;;;0.70;;
18899;SDS011;9582;52.018;6.306;2023-02-26T14:51:55;0.67;;;0.53;;
18899;SDS011;9582;52.018;6.306;2023-02-26T14:54:42;1.70;;;0.50;;
18899;SDS011;9582;52.018;6.306;2023-02-26T14:57:21;0.97;;;0.50;;
18899;SDS011;9582;52.018;6.306;2023-02-26T15:00:08;1.93;;;0.40;;
18899;SDS011;9582;52.018;6.306;2023-02-26T15:02:50;0.80;;;0.50;;
18899;SDS011;9582;52.018;6.306;2023-02-26T15:05:39;0.60;;;0.40;;
18899;SDS011;9582;52.018;6.306;2023-02-26T15:08:15;0.83;;;0.53;;
18899;SDS011;9582;52.018;6.306;2023-02-26T15:11:03;0.87;;;0.40;;
18899;SDS011;9582;52.018;6.306;2023-02-26T15:13:54;0.97;;;0.40;;
18899;SDS011;9582;52.018;6.306;2023-02-26T15:16:46;0.53;;;0.50;;
18899;SDS011;9582;52.018;6.306;2023-02-26T15:19:28;1.23;;;0.60;;
18899;SDS011;9582;52.018;6.306;2023-02-26T15:22:10;0.70;;;0.40;;
18899;SDS011;9582;52.018;6.306;2023-02-26T15:24:47;1.63;;;0.47;;
18899;SDS011;9582;52.018;6.306;2023-02-26T15:27:15;1.60;;;0.43;;
18899;SDS011;9582;52.018;6.306;2023-02-26T15:29:43;1.23;;;0.53;;
18899;SDS011;9582;52.018;6.306;2023-02-26T15:32:14;1.60;;;0.40;;
18899;SDS011;9582;52.018;6.306;2023-02-26T15:34:45;0.57;;;0.50;;
18899;SDS011;9582;52.018;6.306;2023-02-26T15:37:17;0.20;;;0.20;;
18899;SDS011;9582;52.018;6.306;2023-02-26T15:39:47;2.27;;;0.80;;
18899;SDS011;9582;52.018;6.306;2023-02-26T15:42:14;1.67;;;0.60;;
18899;SDS011;9582;52.018;6.306;2023-02-26T15:44:40;0.53;;;0.50;;
18899;SDS011;9582;52.018;6.306;2023-02-26T15:47:09;1.20;;;0.40;;
18899;SDS011;9582;52.018;6.306;2023-02-26T15:49:36;1.93;;;0.60;;
18899;SDS011;9582;52.018;6.306;2023-02-26T15:52:06;1.17;;;0.50;;
18899;SDS011;9582;52.018;6.306;2023-02-26T15:54:37;0.60;;;0.40;;
18899;SDS011;9582;52.018;6.306;2023-02-26T15:57:06;0.90;;;0.60;;
18899;SDS011;9582;52.018;6.306;2023-02-26T15:59:34;1.80;;;0.80;;